sensor_id;sensor_type;location;lat;lon;timestamp;P1;durP1;ratioP1;P2;durP2;ratioP2
18376;SDS011;9315;52.624;13.544;2023-05-07T00:01:05;1.93;;;1.30;;
18376;SDS011;9315;52.624;13.544;2023-05-07T00:03:33;1.80;;;0.97;;
18376;SDS011;9315;52.624;13.544;2023-05-07T00:06:00;1.90;;;1.27;;
18376;SDS011;9315;52.624;13.544;2023-05-07T00:08:29;1.70;;;0.80;;
18376;SDS011;9315;52.624;13.544;2023-05-07T00:10:57;3.50;;;1.37;;
18376;SDS011;9315;52.624;13.544;2023-05-07T00:13:24;4.57;;;1.20;;
18376;SDS011;9315;52.624;13.544;2023-05-07T00:15:51;2.47;;;0.80;;
18376;SDS011;9315;52.624;13.544;2023-05-07T00:18:18;1.97;;;1.07;;
18376;SDS011;9315;52.624;13.544;2023-05-07T00:20:48;1.20;;;0.63;;
18376;SDS011;9315;52.624;13.544;2023-05-07T00:23:15;1.47;;;1.20;;
18376;SDS011;9315;52.624;13.544;2023-05-07T00:25:42;4.23;;;1.30;;
18376;SDS011;9315;52.624;13.544;2023-05-07T00:28:09;2.07;;;1.07;;
18376;SDS011;9315;52.624;13.544;2023-05-07T00:30:39;1.83;;;1.17;;
18376;SDS011;9315;52.624;13.544;2023-05-07T00:33:06;1.53;;;1.03;;
18376;SDS011;9315;52.624;13.544;2023-05-07T00:35:33;1.10;;;0.90;;
18376;SDS011;9315;52.624;13.544;2023-05-07T00:38:00;2.70;;;1.80;;
18376;SDS011;9315;52.624;13.544;2023-05-07T00:40:27;1.00;;;0.90;;
18376;SDS011;9315;52.624;13.544;2023-05-07T00:42:54;2.33;;;1.87;;
18376;SDS011;9315;52.624;13.544;2023-05-07T00:45:26;2.90;;;1.03;;
18376;SDS011;9315;52.624;13.544;2023-05-07T00:47:58;1.47;;;1.27;;
18376;SDS011;9315;52.624;13.544;2023-05-07T00:50:27;2.30;;;1.50;;
18376;SDS011;9315;52.624;13.544;2023-05-07T00:52:56;1.30;;;1.00;;
18376;SDS011;9315;52.624;13.544;2023-05-07T00:55:23;1.43;;;1.03;;
18376;SDS011;9315;52.624;13.544;2023-05-07T00:57:50;3.23;;;1.40;;
18376;SDS011;9315;52.624;13.544;2023-05-07T01:00:18;1.33;;;1.17;;
18376;SDS011;9315;52.624;13.544;2023-05-07T01:02:46;1.03;;;0.93;;
18376;SDS011;9315;52.624;13.544;2023-05-07T01:05:14;1.67;;;1.03;;
18376;SDS011;9315;52.624;13.544;2023-05-07T01:07:45;1.53;;;1.43;;
18376;SDS011;9315;52.624;13.544;2023-05-07T01:10:13;1.13;;;0.90;;
18376;SDS011;9315;52.624;13.544;2023-05-07T01:12:41;3.43;;;1.60;;
18376;SDS011;9315;52.624;13.544;2023-05-07T01:15:09;1.77;;;0.93;;
18376;SDS011;9315;52.624;13.544;2023-05-07T01:17:39;3.30;;;1.47;;
18376;SDS011;9315;52.624;13.544;2023-05-07T01:20:08;1.70;;;1.23;;
18376;SDS011;9315;52.624;13.544;2023-05-07T01:22:37;1.33;;;0.90;;
18376;SDS011;9315;52.624;13.544;2023-05-07T01:25:06;1.53;;;1.27;;
18376;SDS011;9315;52.624;13.544;2023-05-07T01:27:34;2.27;;;1.80;;
18376;SDS011;9315;52.624;13.544;2023-05-07T01:30:03;1.17;;;1.07;;
18376;SDS011;9315;52.624;13.544;2023-05-07T01:32:32;0.97;;;0.90;;
18376;SDS011;9315;52.624;13.544;2023-05-07T01:35:36;0.77;;;0.77;;
18376;SDS011;9315;52.624;13.544;2023-05-07T01:38:11;1.63;;;1.10;;
18376;SDS011;9315;52.624;13.544;2023-05-07T01:40:39;1.53;;;1.13;;
18376;SDS011;9315;52.624;13.544;2023-05-07T01:43:06;1.43;;;1.00;;
18376;SDS011;9315;52.624;13.544;2023-05-07T01:45:35;1.07;;;0.73;;
18376;SDS011;9315;52.624;13.544;2023-05-07T01:48:03;1.07;;;0.80;;
18376;SDS011;9315;52.624;13.544;2023-05-07T01:50:31;2.40;;;1.20;;
18376;SDS011;9315;52.624;13.544;2023-05-07T01:52:58;0.80;;;0.80;;
18376;SDS011;9315;52.624;13.544;2023-05-07T01:55:27;3.17;;;1.07;;
18376;SDS011;9315;52.624;13.544;2023-05-07T01:57:54;1.40;;;1.07;;
18376;SDS011;9315;52.624;13.544;2023-05-07T02:00:21;3.67;;;1.63;;
18376;SDS011;9315;52.624;13.544;2023-05-07T02:02:49;1.83;;;1.17;;
18376;SDS011;9315;52.624;13.544;2023-05-07T02:05:16;1.10;;;1.00;;
18376;SDS011;9315;52.624;13.544;2023-05-07T02:07:43;3.00;;;0.97;;
18376;SDS011;9315;52.624;13.544;2023-05-07T02:10:10;1.07;;;0.70;;
18376;SDS011;9315;52.624;13.544;2023-05-07T02:12:38;2.83;;;1.13;;
18376;SDS011;9315;52.624;13.544;2023-05-07T02:15:05;2.37;;;1.30;;
18376;SDS011;9315;52.624;13.544;2023-05-07T02:17:33;2.03;;;1.37;;
18376;SDS011;9315;52.624;13.544;2023-05-07T02:20:01;2.30;;;1.37;;
18376;SDS011;9315;52.624;13.544;2023-05-07T02:22:29;2.17;;;1.50;;
18376;SDS011;9315;52.624;13.544;2023-05-07T02:24:56;1.27;;;0.93;;
18376;SDS011;9315;52.624;13.544;2023-05-07T02:27:24;1.20;;;1.10;;
18376;SDS011;9315;52.624;13.544;2023-05-07T02:29:51;2.67;;;1.10;;
18376;SDS011;9315;52.624;13.544;2023-05-07T02:32:18;3.53;;;2.57;;
18376;SDS011;9315;52.624;13.544;2023-05-07T02:34:45;4.87;;;3.17;;
18376;SDS011;9315;52.624;13.544;2023-05-07T02:37:12;7.03;;;3.33;;
18376;SDS011;9315;52.624;13.544;2023-05-07T02:39:40;5.23;;;3.33;;
18376;SDS011;9315;52.624;13.544;2023-05-07T02:42:07;4.00;;;2.47;;
18376;SDS011;9315;52.624;13.544;2023-05-07T02:44:34;4.87;;;3.00;;
18376;SDS011;9315;52.624;13.544;2023-05-07T02:47:01;4.67;;;2.73;;
18376;SDS011;9315;52.624;13.544;2023-05-07T02:49:28;8.27;;;3.27;;
18376;SDS011;9315;52.624;13.544;2023-05-07T02:51:55;5.50;;;2.90;;
18376;SDS011;9315;52.624;13.544;2023-05-07T02:54:22;6.60;;;3.03;;
18376;SDS011;9315;52.624;13.544;2023-05-07T02:56:50;6.93;;;3.10;;
18376;SDS011;9315;52.624;13.544;2023-05-07T02:59:18;2.57;;;1.57;;
18376;SDS011;9315;52.624;13.544;2023-05-07T03:01:45;2.67;;;1.83;;
18376;SDS011;9315;52.624;13.544;2023-05-07T03:04:12;2.53;;;1.57;;
18376;SDS011;9315;52.624;13.544;2023-05-07T03:06:39;3.13;;;0.70;;
18376;SDS011;9315;52.624;13.544;2023-05-07T03:09:06;2.70;;;1.40;;
18376;SDS011;9315;52.624;13.544;2023-05-07T03:11:37;3.10;;;1.37;;
18376;SDS011;9315;52.624;13.544;2023-05-07T03:14:04;3.80;;;1.40;;
18376;SDS011;9315;52.624;13.544;2023-05-07T03:16:31;4.83;;;1.20;;
18376;SDS011;9315;52.624;13.544;2023-05-07T03:18:59;2.80;;;1.30;;
18376;SDS011;9315;52.624;13.544;2023-05-07T03:21:28;3.13;;;1.40;;
18376;SDS011;9315;52.624;13.544;2023-05-07T03:23:56;1.77;;;1.40;;
18376;SDS011;9315;52.624;13.544;2023-05-07T03:26:23;1.37;;;1.20;;
18376;SDS011;9315;52.624;13.544;2023-05-07T03:28:51;2.10;;;1.60;;
18376;SDS011;9315;52.624;13.544;2023-05-07T03:31:18;2.07;;;1.17;;
18376;SDS011;9315;52.624;13.544;2023-05-07T03:33:55;2.10;;;1.10;;
18376;SDS011;9315;52.624;13.544;2023-05-07T03:36:24;1.30;;;1.00;;
18376;SDS011;9315;52.624;13.544;2023-05-07T03:38:53;1.37;;;1.00;;
18376;SDS011;9315;52.624;13.544;2023-05-07T03:41:20;1.47;;;0.90;;
18376;SDS011;9315;52.624;13.544;2023-05-07T03:43:47;1.20;;;0.97;;
18376;SDS011;9315;52.624;13.544;2023-05-07T03:46:14;2.07;;;1.10;;
18376;SDS011;9315;52.624;13.544;2023-05-07T03:48:42;8.10;;;1.47;;
18376;SDS011;9315;52.624;13.544;2023-05-07T03:51:09;1.47;;;1.00;;
18376;SDS011;9315;52.624;13.544;2023-05-07T03:53:36;1.07;;;0.80;;
18376;SDS011;9315;52.624;13.544;2023-05-07T03:56:03;2.47;;;1.00;;
18376;SDS011;9315;52.624;13.544;2023-05-07T03:58:31;0.90;;;0.80;;
18376;SDS011;9315;52.624;13.544;2023-05-07T04:00:58;1.27;;;0.70;;
18376;SDS011;9315;52.624;13.544;2023-05-07T04:03:26;1.70;;;1.20;;
18376;SDS011;9315;52.624;13.544;2023-05-07T04:05:53;1.10;;;0.90;;
18376;SDS011;9315;52.624;13.544;2023-05-07T04:08:21;1.63;;;1.37;;
18376;SDS011;9315;52.624;13.544;2023-05-07T04:10:48;1.13;;;1.00;;
18376;SDS011;9315;52.624;13.544;2023-05-07T04:13:24;2.20;;;1.00;;
18376;SDS011;9315;52.624;13.544;2023-05-07T04:15:54;2.93;;;1.60;;
18376;SDS011;9315;52.624;13.544;2023-05-07T04:18:22;2.73;;;1.23;;
18376;SDS011;9315;52.624;13.544;2023-05-07T04:20:49;1.27;;;1.17;;
18376;SDS011;9315;52.624;13.544;2023-05-07T04:23:16;2.03;;;1.43;;
18376;SDS011;9315;52.624;13.544;2023-05-07T04:25:43;1.60;;;1.23;;
18376;SDS011;9315;52.624;13.544;2023-05-07T04:28:11;2.03;;;1.20;;
18376;SDS011;9315;52.624;13.544;2023-05-07T04:30:39;4.10;;;1.03;;
18376;SDS011;9315;52.624;13.544;2023-05-07T04:33:07;1.80;;;1.03;;
18376;SDS011;9315;52.624;13.544;2023-05-07T04:35:35;0.93;;;0.73;;
18376;SDS011;9315;52.624;13.544;2023-05-07T04:38:02;3.03;;;1.33;;
18376;SDS011;9315;52.624;13.544;2023-05-07T04:40:29;2.10;;;1.20;;
18376;SDS011;9315;52.624;13.544;2023-05-07T04:42:56;2.73;;;0.93;;
18376;SDS011;9315;52.624;13.544;2023-05-07T04:45:23;1.47;;;1.20;;
18376;SDS011;9315;52.624;13.544;2023-05-07T04:47:50;1.77;;;0.73;;
18376;SDS011;9315;52.624;13.544;2023-05-07T04:50:18;1.90;;;1.07;;
18376;SDS011;9315;52.624;13.544;2023-05-07T04:52:45;1.77;;;0.97;;
18376;SDS011;9315;52.624;13.544;2023-05-07T04:55:13;1.97;;;1.00;;
18376;SDS011;9315;52.624;13.544;2023-05-07T04:57:40;1.43;;;1.03;;
18376;SDS011;9315;52.624;13.544;2023-05-07T05:00:07;2.27;;;0.90;;
18376;SDS011;9315;52.624;13.544;2023-05-07T05:02:35;5.43;;;1.67;;
18376;SDS011;9315;52.624;13.544;2023-05-07T05:05:03;1.43;;;0.87;;
18376;SDS011;9315;52.624;13.544;2023-05-07T05:07:30;4.43;;;1.17;;
18376;SDS011;9315;52.624;13.544;2023-05-07T05:09:58;2.57;;;1.00;;
18376;SDS011;9315;52.624;13.544;2023-05-07T05:12:25;0.83;;;0.50;;
18376;SDS011;9315;52.624;13.544;2023-05-07T05:14:52;1.93;;;1.07;;
18376;SDS011;9315;52.624;13.544;2023-05-07T05:17:20;1.37;;;1.27;;
18376;SDS011;9315;52.624;13.544;2023-05-07T05:19:47;4.13;;;0.93;;
18376;SDS011;9315;52.624;13.544;2023-05-07T05:22:14;2.77;;;1.83;;
18376;SDS011;9315;52.624;13.544;2023-05-07T05:24:42;2.77;;;2.00;;
18376;SDS011;9315;52.624;13.544;2023-05-07T05:27:09;2.73;;;1.40;;
18376;SDS011;9315;52.624;13.544;2023-05-07T05:29:36;1.37;;;1.07;;
18376;SDS011;9315;52.624;13.544;2023-05-07T05:32:04;2.10;;;1.20;;
18376;SDS011;9315;52.624;13.544;2023-05-07T05:34:31;2.93;;;0.97;;
18376;SDS011;9315;52.624;13.544;2023-05-07T05:36:59;1.30;;;1.20;;
18376;SDS011;9315;52.624;13.544;2023-05-07T05:39:26;1.63;;;1.37;;
18376;SDS011;9315;52.624;13.544;2023-05-07T05:41:53;2.83;;;1.03;;
18376;SDS011;9315;52.624;13.544;2023-05-07T05:44:20;2.80;;;1.30;;
18376;SDS011;9315;52.624;13.544;2023-05-07T05:46:48;1.93;;;1.20;;
18376;SDS011;9315;52.624;13.544;2023-05-07T05:49:16;2.77;;;1.10;;
18376;SDS011;9315;52.624;13.544;2023-05-07T05:51:43;1.47;;;1.27;;
18376;SDS011;9315;52.624;13.544;2023-05-07T05:54:10;0.90;;;0.90;;
18376;SDS011;9315;52.624;13.544;2023-05-07T05:56:37;1.77;;;1.13;;
18376;SDS011;9315;52.624;13.544;2023-05-07T05:59:04;1.37;;;0.90;;
18376;SDS011;9315;52.624;13.544;2023-05-07T06:01:32;4.07;;;2.00;;
18376;SDS011;9315;52.624;13.544;2023-05-07T06:03:59;2.43;;;0.67;;
18376;SDS011;9315;52.624;13.544;2023-05-07T06:06:26;2.37;;;1.17;;
18376;SDS011;9315;52.624;13.544;2023-05-07T06:08:54;2.13;;;1.30;;
18376;SDS011;9315;52.624;13.544;2023-05-07T06:11:21;2.10;;;1.33;;
18376;SDS011;9315;52.624;13.544;2023-05-07T06:13:48;2.27;;;1.27;;
18376;SDS011;9315;52.624;13.544;2023-05-07T06:16:15;1.20;;;1.00;;
18376;SDS011;9315;52.624;13.544;2023-05-07T06:18:42;1.90;;;1.37;;
18376;SDS011;9315;52.624;13.544;2023-05-07T06:21:11;2.87;;;1.40;;
18376;SDS011;9315;52.624;13.544;2023-05-07T06:23:40;1.17;;;0.90;;
18376;SDS011;9315;52.624;13.544;2023-05-07T06:26:08;2.13;;;1.53;;
18376;SDS011;9315;52.624;13.544;2023-05-07T06:28:35;1.90;;;1.20;;
18376;SDS011;9315;52.624;13.544;2023-05-07T06:31:12;2.83;;;1.43;;
18376;SDS011;9315;52.624;13.544;2023-05-07T06:33:42;1.40;;;0.87;;
18376;SDS011;9315;52.624;13.544;2023-05-07T06:36:11;2.03;;;1.10;;
18376;SDS011;9315;52.624;13.544;2023-05-07T06:38:39;1.20;;;0.70;;
18376;SDS011;9315;52.624;13.544;2023-05-07T06:41:06;1.53;;;1.03;;
18376;SDS011;9315;52.624;13.544;2023-05-07T06:43:33;2.43;;;1.17;;
18376;SDS011;9315;52.624;13.544;2023-05-07T06:46:01;2.30;;;1.03;;
18376;SDS011;9315;52.624;13.544;2023-05-07T06:48:28;2.47;;;1.30;;
18376;SDS011;9315;52.624;13.544;2023-05-07T06:50:55;1.57;;;0.93;;
18376;SDS011;9315;52.624;13.544;2023-05-07T06:53:24;1.20;;;1.10;;
18376;SDS011;9315;52.624;13.544;2023-05-07T06:55:51;0.90;;;0.80;;
18376;SDS011;9315;52.624;13.544;2023-05-07T06:58:19;1.23;;;1.03;;
18376;SDS011;9315;52.624;13.544;2023-05-07T07:00:46;1.23;;;0.93;;
18376;SDS011;9315;52.624;13.544;2023-05-07T07:03:13;1.60;;;1.17;;
18376;SDS011;9315;52.624;13.544;2023-05-07T07:05:41;2.67;;;1.80;;
18376;SDS011;9315;52.624;13.544;2023-05-07T07:08:08;1.40;;;1.27;;
18376;SDS011;9315;52.624;13.544;2023-05-07T07:10:36;2.13;;;1.43;;
18376;SDS011;9315;52.624;13.544;2023-05-07T07:13:03;1.53;;;1.03;;
18376;SDS011;9315;52.624;13.544;2023-05-07T07:15:30;1.20;;;0.90;;
18376;SDS011;9315;52.624;13.544;2023-05-07T07:17:57;0.60;;;0.60;;
18376;SDS011;9315;52.624;13.544;2023-05-07T07:20:25;1.33;;;0.80;;
18376;SDS011;9315;52.624;13.544;2023-05-07T07:22:52;2.87;;;1.20;;
18376;SDS011;9315;52.624;13.544;2023-05-07T07:25:19;1.93;;;1.17;;
18376;SDS011;9315;52.624;13.544;2023-05-07T07:27:46;0.90;;;0.83;;
18376;SDS011;9315;52.624;13.544;2023-05-07T07:30:13;1.00;;;0.80;;
18376;SDS011;9315;52.624;13.544;2023-05-07T07:32:41;1.07;;;0.80;;
18376;SDS011;9315;52.624;13.544;2023-05-07T07:35:08;2.57;;;0.90;;
18376;SDS011;9315;52.624;13.544;2023-05-07T07:37:36;1.57;;;0.80;;
18376;SDS011;9315;52.624;13.544;2023-05-07T07:40:03;1.47;;;0.63;;
18376;SDS011;9315;52.624;13.544;2023-05-07T07:42:31;0.73;;;0.70;;
18376;SDS011;9315;52.624;13.544;2023-05-07T07:44:58;3.43;;;1.30;;
18376;SDS011;9315;52.624;13.544;2023-05-07T07:47:28;0.87;;;0.60;;
18376;SDS011;9315;52.624;13.544;2023-05-07T07:49:55;1.50;;;0.70;;
18376;SDS011;9315;52.624;13.544;2023-05-07T07:52:22;1.57;;;0.77;;
18376;SDS011;9315;52.624;13.544;2023-05-07T07:54:50;2.40;;;0.80;;
18376;SDS011;9315;52.624;13.544;2023-05-07T07:57:17;1.10;;;0.60;;
18376;SDS011;9315;52.624;13.544;2023-05-07T07:59:44;2.20;;;0.90;;
18376;SDS011;9315;52.624;13.544;2023-05-07T08:02:11;0.53;;;0.50;;
18376;SDS011;9315;52.624;13.544;2023-05-07T08:04:41;0.83;;;0.73;;
18376;SDS011;9315;52.624;13.544;2023-05-07T08:07:09;1.13;;;0.63;;
18376;SDS011;9315;52.624;13.544;2023-05-07T08:09:37;1.93;;;0.90;;
18376;SDS011;9315;52.624;13.544;2023-05-07T08:12:08;1.57;;;0.70;;
18376;SDS011;9315;52.624;13.544;2023-05-07T08:14:35;1.27;;;0.90;;
18376;SDS011;9315;52.624;13.544;2023-05-07T08:17:03;1.17;;;0.40;;
18376;SDS011;9315;52.624;13.544;2023-05-07T08:19:30;1.13;;;0.60;;
18376;SDS011;9315;52.624;13.544;2023-05-07T08:21:57;0.93;;;0.63;;
18376;SDS011;9315;52.624;13.544;2023-05-07T08:24:24;1.03;;;0.43;;
18376;SDS011;9315;52.624;13.544;2023-05-07T08:26:52;1.10;;;0.60;;
18376;SDS011;9315;52.624;13.544;2023-05-07T08:29:19;0.80;;;0.60;;
18376;SDS011;9315;52.624;13.544;2023-05-07T08:31:46;1.03;;;0.60;;
18376;SDS011;9315;52.624;13.544;2023-05-07T08:34:13;0.93;;;0.80;;
18376;SDS011;9315;52.624;13.544;2023-05-07T08:36:40;1.37;;;0.83;;
18376;SDS011;9315;52.624;13.544;2023-05-07T08:39:08;1.43;;;0.70;;
18376;SDS011;9315;52.624;13.544;2023-05-07T08:41:35;1.00;;;0.70;;
18376;SDS011;9315;52.624;13.544;2023-05-07T08:44:03;2.83;;;0.70;;
18376;SDS011;9315;52.624;13.544;2023-05-07T08:46:38;1.80;;;0.83;;
18376;SDS011;9315;52.624;13.544;2023-05-07T08:49:08;1.53;;;1.00;;
18376;SDS011;9315;52.624;13.544;2023-05-07T08:51:35;1.60;;;0.53;;
18376;SDS011;9315;52.624;13.544;2023-05-07T08:54:02;5.90;;;0.77;;
18376;SDS011;9315;52.624;13.544;2023-05-07T08:56:31;2.87;;;0.90;;
18376;SDS011;9315;52.624;13.544;2023-05-07T08:58:58;0.70;;;0.40;;
18376;SDS011;9315;52.624;13.544;2023-05-07T09:01:26;0.77;;;0.70;;
18376;SDS011;9315;52.624;13.544;2023-05-07T09:03:53;1.53;;;0.70;;
18376;SDS011;9315;52.624;13.544;2023-05-07T09:06:21;0.73;;;0.63;;
18376;SDS011;9315;52.624;13.544;2023-05-07T09:08:49;0.70;;;0.63;;
18376;SDS011;9315;52.624;13.544;2023-05-07T09:11:20;1.20;;;0.70;;
18376;SDS011;9315;52.624;13.544;2023-05-07T09:13:52;1.33;;;0.70;;
18376;SDS011;9315;52.624;13.544;2023-05-07T09:16:22;1.10;;;0.60;;
18376;SDS011;9315;52.624;13.544;2023-05-07T09:18:53;0.50;;;0.50;;
18376;SDS011;9315;52.624;13.544;2023-05-07T09:21:24;0.67;;;0.57;;
18376;SDS011;9315;52.624;13.544;2023-05-07T09:23:52;0.33;;;0.30;;
18376;SDS011;9315;52.624;13.544;2023-05-07T09:26:22;0.80;;;0.50;;
18376;SDS011;9315;52.624;13.544;2023-05-07T09:28:54;0.50;;;0.50;;
18376;SDS011;9315;52.624;13.544;2023-05-07T09:31:21;0.53;;;0.50;;
18376;SDS011;9315;52.624;13.544;2023-05-07T09:33:49;0.87;;;0.50;;
18376;SDS011;9315;52.624;13.544;2023-05-07T09:36:18;0.80;;;0.40;;
18376;SDS011;9315;52.624;13.544;2023-05-07T09:38:45;1.37;;;0.50;;
18376;SDS011;9315;52.624;13.544;2023-05-07T09:41:19;0.50;;;0.40;;
18376;SDS011;9315;52.624;13.544;2023-05-07T09:43:47;0.70;;;0.50;;
18376;SDS011;9315;52.624;13.544;2023-05-07T09:46:24;1.73;;;0.60;;
18376;SDS011;9315;52.624;13.544;2023-05-07T09:48:57;0.57;;;0.53;;
18376;SDS011;9315;52.624;13.544;2023-05-07T09:51:29;0.87;;;0.40;;
18376;SDS011;9315;52.624;13.544;2023-05-07T09:54:18;1.03;;;0.40;;
18376;SDS011;9315;52.624;13.544;2023-05-07T09:56:45;1.00;;;0.80;;
18376;SDS011;9315;52.624;13.544;2023-05-07T09:59:19;0.80;;;0.30;;
18376;SDS011;9315;52.624;13.544;2023-05-07T10:01:50;0.97;;;0.67;;
18376;SDS011;9315;52.624;13.544;2023-05-07T10:04:22;0.63;;;0.50;;
18376;SDS011;9315;52.624;13.544;2023-05-07T10:06:52;0.77;;;0.50;;
18376;SDS011;9315;52.624;13.544;2023-05-07T10:09:21;0.30;;;0.30;;
18376;SDS011;9315;52.624;13.544;2023-05-07T10:11:49;0.70;;;0.43;;
18376;SDS011;9315;52.624;13.544;2023-05-07T10:14:16;0.40;;;0.40;;
18376;SDS011;9315;52.624;13.544;2023-05-07T10:16:45;0.27;;;0.20;;
18376;SDS011;9315;52.624;13.544;2023-05-07T10:19:13;0.83;;;0.33;;
18376;SDS011;9315;52.624;13.544;2023-05-07T10:21:54;0.43;;;0.43;;
18376;SDS011;9315;52.624;13.544;2023-05-07T10:24:35;0.20;;;0.20;;
18376;SDS011;9315;52.624;13.544;2023-05-07T10:27:10;0.20;;;0.20;;
18376;SDS011;9315;52.624;13.544;2023-05-07T10:32:45;0.20;;;0.20;;
18376;SDS011;9315;52.624;13.544;2023-05-07T10:35:18;0.30;;;0.30;;
18376;SDS011;9315;52.624;13.544;2023-05-07T10:37:55;0.67;;;0.30;;
18376;SDS011;9315;52.624;13.544;2023-05-07T10:40:22;0.40;;;0.40;;
18376;SDS011;9315;52.624;13.544;2023-05-07T10:42:55;0.20;;;0.20;;
18376;SDS011;9315;52.624;13.544;2023-05-07T10:45:28;0.67;;;0.30;;
18376;SDS011;9315;52.624;13.544;2023-05-07T10:50:46;0.20;;;0.20;;
18376;SDS011;9315;52.624;13.544;2023-05-07T10:55:46;0.40;;;0.27;;
18376;SDS011;9315;52.624;13.544;2023-05-07T10:58:37;0.27;;;0.27;;
18376;SDS011;9315;52.624;13.544;2023-05-07T11:01:04;0.30;;;0.30;;
18376;SDS011;9315;52.624;13.544;2023-05-07T11:03:34;0.20;;;0.20;;
18376;SDS011;9315;52.624;13.544;2023-05-07T11:06:19;0.22;;;0.20;;
18376;SDS011;9315;52.624;13.544;2023-05-07T11:08:56;0.40;;;0.40;;
18376;SDS011;9315;52.624;13.544;2023-05-07T11:17:07;0.60;;;0.43;;
18376;SDS011;9315;52.624;13.544;2023-05-07T11:19:48;0.40;;;0.40;;
18376;SDS011;9315;52.624;13.544;2023-05-07T11:22:35;0.60;;;0.33;;
18376;SDS011;9315;52.624;13.544;2023-05-07T11:25:06;2.10;;;0.37;;
18376;SDS011;9315;52.624;13.544;2023-05-07T11:27:34;1.70;;;0.47;;
18376;SDS011;9315;52.624;13.544;2023-05-07T11:30:01;2.93;;;0.47;;
18376;SDS011;9315;52.624;13.544;2023-05-07T11:32:30;0.70;;;0.30;;
18376;SDS011;9315;52.624;13.544;2023-05-07T11:34:59;0.43;;;0.40;;
18376;SDS011;9315;52.624;13.544;2023-05-07T11:37:27;0.20;;;0.20;;
18376;SDS011;9315;52.624;13.544;2023-05-07T11:40:06;0.30;;;0.30;;
18376;SDS011;9315;52.624;13.544;2023-05-07T11:42:38;0.20;;;0.20;;
18376;SDS011;9315;52.624;13.544;2023-05-07T11:45:08;0.33;;;0.33;;
18376;SDS011;9315;52.624;13.544;2023-05-07T11:47:36;0.95;;;0.43;;
18376;SDS011;9315;52.624;13.544;2023-05-07T11:50:04;1.55;;;0.30;;
18376;SDS011;9315;52.624;13.544;2023-05-07T11:52:34;0.43;;;0.30;;
18376;SDS011;9315;52.624;13.544;2023-05-07T11:55:02;0.90;;;0.30;;
18376;SDS011;9315;52.624;13.544;2023-05-07T11:57:32;0.45;;;0.35;;
18376;SDS011;9315;52.624;13.544;2023-05-07T12:00:00;0.93;;;0.40;;
18376;SDS011;9315;52.624;13.544;2023-05-07T12:02:30;0.43;;;0.20;;
18376;SDS011;9315;52.624;13.544;2023-05-07T12:05:00;0.70;;;0.40;;
18376;SDS011;9315;52.624;13.544;2023-05-07T12:07:28;0.80;;;0.33;;
18376;SDS011;9315;52.624;13.544;2023-05-07T12:09:55;0.38;;;0.38;;
18376;SDS011;9315;52.624;13.544;2023-05-07T12:12:22;0.23;;;0.23;;
18376;SDS011;9315;52.624;13.544;2023-05-07T12:14:50;0.38;;;0.38;;
18376;SDS011;9315;52.624;13.544;2023-05-07T12:17:18;0.30;;;0.30;;
18376;SDS011;9315;52.624;13.544;2023-05-07T12:19:48;0.20;;;0.20;;
18376;SDS011;9315;52.624;13.544;2023-05-07T12:22:25;0.70;;;0.22;;
18376;SDS011;9315;52.624;13.544;2023-05-07T12:24:58;0.80;;;0.35;;
18376;SDS011;9315;52.624;13.544;2023-05-07T12:27:29;0.57;;;0.20;;
18376;SDS011;9315;52.624;13.544;2023-05-07T12:29:57;0.35;;;0.35;;
18376;SDS011;9315;52.624;13.544;2023-05-07T12:32:25;0.77;;;0.30;;
18376;SDS011;9315;52.624;13.544;2023-05-07T12:34:52;0.65;;;0.30;;
18376;SDS011;9315;52.624;13.544;2023-05-07T12:37:26;0.90;;;0.77;;
18376;SDS011;9315;52.624;13.544;2023-05-07T12:40:06;0.50;;;0.50;;
18376;SDS011;9315;52.624;13.544;2023-05-07T12:42:46;0.68;;;0.50;;
18376;SDS011;9315;52.624;13.544;2023-05-07T12:45:18;0.30;;;0.30;;
18376;SDS011;9315;52.624;13.544;2023-05-07T12:47:46;0.55;;;0.45;;
18376;SDS011;9315;52.624;13.544;2023-05-07T12:50:15;1.13;;;0.35;;
18376;SDS011;9315;52.624;13.544;2023-05-07T12:52:43;0.35;;;0.35;;
18376;SDS011;9315;52.624;13.544;2023-05-07T12:55:14;0.45;;;0.35;;
18376;SDS011;9315;52.624;13.544;2023-05-07T12:57:45;2.10;;;0.30;;
18376;SDS011;9315;52.624;13.544;2023-05-07T13:00:16;0.40;;;0.30;;
18376;SDS011;9315;52.624;13.544;2023-05-07T13:03:03;0.45;;;0.30;;
18376;SDS011;9315;52.624;13.544;2023-05-07T13:05:33;0.20;;;0.20;;
18376;SDS011;9315;52.624;13.544;2023-05-07T13:08:01;0.40;;;0.40;;
18376;SDS011;9315;52.624;13.544;2023-05-07T13:10:28;0.30;;;0.30;;
18376;SDS011;9315;52.624;13.544;2023-05-07T13:12:55;0.45;;;0.40;;
18376;SDS011;9315;52.624;13.544;2023-05-07T13:15:23;0.65;;;0.40;;
18376;SDS011;9315;52.624;13.544;2023-05-07T13:17:52;0.60;;;0.28;;
18376;SDS011;9315;52.624;13.544;2023-05-07T13:20:22;0.50;;;0.30;;
18376;SDS011;9315;52.624;13.544;2023-05-07T13:22:49;0.38;;;0.20;;
18376;SDS011;9315;52.624;13.544;2023-05-07T13:25:16;0.30;;;0.30;;
18376;SDS011;9315;52.624;13.544;2023-05-07T13:27:44;0.35;;;0.35;;
18376;SDS011;9315;52.624;13.544;2023-05-07T13:30:35;0.40;;;0.22;;
18376;SDS011;9315;52.624;13.544;2023-05-07T13:33:02;0.30;;;0.30;;
18376;SDS011;9315;52.624;13.544;2023-05-07T13:35:34;0.45;;;0.45;;
18376;SDS011;9315;52.624;13.544;2023-05-07T13:38:02;0.50;;;0.50;;
18376;SDS011;9315;52.624;13.544;2023-05-07T13:40:29;0.55;;;0.47;;
18376;SDS011;9315;52.624;13.544;2023-05-07T13:42:57;0.45;;;0.45;;
18376;SDS011;9315;52.624;13.544;2023-05-07T13:45:26;0.50;;;0.43;;
18376;SDS011;9315;52.624;13.544;2023-05-07T13:47:56;0.75;;;0.40;;
18376;SDS011;9315;52.624;13.544;2023-05-07T13:50:23;0.82;;;0.52;;
18376;SDS011;9315;52.624;13.544;2023-05-07T13:52:52;0.40;;;0.40;;
18376;SDS011;9315;52.624;13.544;2023-05-07T13:55:20;0.45;;;0.45;;
18376;SDS011;9315;52.624;13.544;2023-05-07T13:57:56;0.40;;;0.40;;
18376;SDS011;9315;52.624;13.544;2023-05-07T14:00:33;0.20;;;0.20;;
18376;SDS011;9315;52.624;13.544;2023-05-07T14:03:00;1.02;;;0.35;;
18376;SDS011;9315;52.624;13.544;2023-05-07T14:05:28;1.67;;;0.50;;
18376;SDS011;9315;52.624;13.544;2023-05-07T14:07:58;0.28;;;0.28;;
18376;SDS011;9315;52.624;13.544;2023-05-07T14:10:28;0.25;;;0.25;;
18376;SDS011;9315;52.624;13.544;2023-05-07T14:12:55;0.65;;;0.40;;
18376;SDS011;9315;52.624;13.544;2023-05-07T14:15:23;0.30;;;0.30;;
18376;SDS011;9315;52.624;13.544;2023-05-07T14:17:50;0.35;;;0.30;;
18376;SDS011;9315;52.624;13.544;2023-05-07T14:20:18;0.20;;;0.20;;
18376;SDS011;9315;52.624;13.544;2023-05-07T14:22:45;0.30;;;0.30;;
18376;SDS011;9315;52.624;13.544;2023-05-07T14:25:12;0.35;;;0.30;;
18376;SDS011;9315;52.624;13.544;2023-05-07T14:27:42;0.52;;;0.40;;
18376;SDS011;9315;52.624;13.544;2023-05-07T14:30:10;0.47;;;0.20;;
18376;SDS011;9315;52.624;13.544;2023-05-07T14:32:38;0.17;;;0.17;;
18376;SDS011;9315;52.624;13.544;2023-05-07T14:35:05;0.30;;;0.30;;
18376;SDS011;9315;52.624;13.544;2023-05-07T14:37:32;0.22;;;0.22;;
18376;SDS011;9315;52.624;13.544;2023-05-07T14:40:00;0.30;;;0.30;;
18376;SDS011;9315;52.624;13.544;2023-05-07T14:42:31;0.40;;;0.28;;
18376;SDS011;9315;52.624;13.544;2023-05-07T14:44:58;0.30;;;0.30;;
18376;SDS011;9315;52.624;13.544;2023-05-07T14:47:25;0.47;;;0.40;;
18376;SDS011;9315;52.624;13.544;2023-05-07T14:49:55;0.68;;;0.50;;
18376;SDS011;9315;52.624;13.544;2023-05-07T14:52:23;18.42;;;0.88;;
18376;SDS011;9315;52.624;13.544;2023-05-07T14:54:50;0.15;;;0.15;;
18376;SDS011;9315;52.624;13.544;2023-05-07T14:57:17;0.20;;;0.20;;
18376;SDS011;9315;52.624;13.544;2023-05-07T14:59:45;0.10;;;0.10;;
18376;SDS011;9315;52.624;13.544;2023-05-07T15:02:13;0.15;;;0.15;;
18376;SDS011;9315;52.624;13.544;2023-05-07T15:04:41;0.55;;;0.40;;
18376;SDS011;9315;52.624;13.544;2023-05-07T15:07:15;0.50;;;0.40;;
18376;SDS011;9315;52.624;13.544;2023-05-07T15:09:42;0.30;;;0.30;;
18376;SDS011;9315;52.624;13.544;2023-05-07T15:12:10;0.30;;;0.30;;